Time;durP1;ratioP1;P1;durP2;ratioP2;P2;SDS_P1;SDS_P2;PMS_P1;PMS_P2;Temp;Humidity;BMP_temperature;BMP_pressure;BME280_temperature;BME280_humidity;BME280_pressure;Samples;Min_cycle;Max_cycle;Signal;HPM_P1;HPM_P2
2022/11/15 00:00:29;;;;;;;38.85;15.95;;;27.00;99.90;;;;;;5056702;28;20048;-65
2022/11/15 00:02:56;;;;;;;47.83;19.92;;;27.10;99.90;;;;;;5053958;28;20165;-65
2022/11/15 00:05:22;;;;;;;71.05;28.73;;;27.10;99.90;;;;;;5045220;28;20078;-64
2022/11/15 00:07:49;;;;;;;48.03;21.30;;;27.10;99.90;;;;;;5036380;28;20037;-65
2022/11/15 00:10:16;;;;;;;27.73;14.80;;;27.20;99.90;;;;;;5036416;28;20021;-64
2022/11/15 00:12:42;;;;;;;21.27;8.70;;;27.20;99.90;;;;;;5036101;28;20417;-64
2022/11/15 00:15:09;;;;;;;21.23;9.50;;;27.20;99.90;;;;;;5045949;28;20446;-64
2022/11/15 00:17:35;;;;;;;18.98;10.68;;;27.10;99.90;;;;;;5047699;28;20385;-64
2022/11/15 00:20:02;;;;;;;23.75;10.27;;;27.20;99.90;;;;;;5046135;28;20021;-70
2022/11/15 00:22:33;;;;;;;22.67;11.13;;;27.30;99.90;;;;;;5044343;28;20105;-64
2022/11/15 00:24:59;;;;;;;20.92;11.60;;;27.30;99.90;;;;;;5044618;28;20025;-63
2022/11/15 00:27:27;;;;;;;31.10;11.82;;;27.40;99.90;;;;;;5045762;28;20025;-63
2022/11/15 00:29:53;;;;;;;24.70;12.48;;;27.40;99.90;;;;;;5044840;28;20104;-64
2022/11/15 00:32:20;;;;;;;31.73;12.80;;;27.50;99.90;;;;;;5044572;28;20025;-63
2022/11/15 00:34:46;;;;;;;35.30;12.38;;;27.40;99.90;;;;;;5045838;28;20109;-63
2022/11/15 00:37:13;;;;;;;23.52;13.55;;;27.50;99.90;;;;;;5044310;28;20052;-63
2022/11/15 00:39:39;;;;;;;23.90;14.88;;;27.50;99.90;;;;;;5044340;28;20067;-63
2022/11/15 00:42:06;;;;;;;21.05;10.82;;;27.50;99.90;;;;;;5046097;28;20017;-63
2022/11/15 00:44:32;;;;;;;19.00;10.57;;;27.50;99.90;;;;;;5044145;28;20026;-63
2022/11/15 00:46:59;;;;;;;22.83;10.35;;;27.50;99.90;;;;;;5044244;28;20028;-63
2022/11/15 00:49:25;;;;;;;24.75;11.05;;;27.50;99.90;;;;;;5045841;28;20477;-63
2022/11/15 00:51:52;;;;;;;213.27;170.90;;;27.50;99.90;;;;;;5045285;28;20028;-62
2022/11/15 00:54:18;;;;;;;28.98;13.85;;;27.60;99.90;;;;;;5048202;28;20386;-64
2022/11/15 00:56:45;;;;;;;29.35;12.13;;;27.60;99.90;;;;;;5043634;28;20009;-64
2022/11/15 00:59:11;;;;;;;23.13;11.57;;;27.60;99.90;;;;;;5045042;28;20033;-63
2022/11/15 01:01:38;;;;;;;21.17;11.18;;;27.60;99.90;;;;;;5044866;28;20026;-62
2022/11/15 01:04:04;;;;;;;19.45;9.45;;;27.60;99.90;;;;;;5043172;28;20048;-66
2022/11/15 01:06:31;;;;;;;17.23;9.52;;;27.60;99.90;;;;;;5044959;28;20412;-64
2022/11/15 01:08:57;;;;;;;24.13;9.68;;;27.60;99.90;;;;;;5044238;28;20025;-63
2022/11/15 01:11:24;;;;;;;16.83;9.30;;;27.60;99.90;;;;;;5043068;28;20034;-63
2022/11/15 01:13:50;;;;;;;14.38;7.93;;;27.60;99.90;;;;;;5044724;28;20021;-62
2022/11/15 01:16:18;;;;;;;62.38;33.40;;;27.70;99.90;;;;;;5044241;28;20490;-63
2022/11/15 01:18:46;;;;;;;34.47;20.35;;;27.70;99.90;;;;;;5035915;28;20025;-65
2022/11/15 01:21:16;;;;;;;30.75;9.75;;;27.80;99.90;;;;;;5045403;28;20028;-63
2022/11/15 01:23:42;;;;;;;21.77;7.97;;;27.90;99.90;;;;;;5035257;28;20033;-63
2022/11/15 01:26:12;;;;;;;19.42;8.50;;;27.80;99.90;;;;;;5035289;28;20022;-64
2022/11/15 01:28:40;;;;;;;17.40;8.95;;;27.80;99.90;;;;;;5034931;28;20057;-63
2022/11/15 01:31:18;;;;;;;19.48;7.72;;;27.80;99.90;;;;;;5035424;28;20497;-63
2022/11/15 01:33:45;;;;;;;24.73;10.02;;;27.80;99.90;;;;;;5054657;28;20036;-64
2022/11/15 01:36:14;;;;;;;34.72;9.65;;;27.80;99.90;;;;;;5054220;28;20049;-67
2022/11/15 01:38:41;;;;;;;15.73;7.13;;;27.90;99.90;;;;;;5054967;28;20033;-68
2022/11/15 01:41:17;;;;;;;19.48;8.20;;;27.90;99.90;;;;;;5054499;28;20474;-63
2022/11/15 01:43:43;;;;;;;13.75;7.22;;;28.10;99.90;;;;;;5046771;28;20038;-62
2022/11/15 01:46:12;;;;;;;31.30;7.43;;;28.20;99.90;;;;;;5034715;28;20033;-59
2022/11/15 01:48:39;;;;;;;17.05;6.82;;;28.20;99.90;;;;;;5050992;28;20119;-61
2022/11/15 01:51:11;;;;;;;78.15;39.30;;;28.30;99.90;;;;;;5052576;28;20017;-63
2022/11/15 01:53:41;;;;;;;23.48;13.27;;;28.50;99.90;;;;;;5054451;28;20025;-63
2022/11/15 01:56:13;;;;;;;59.92;32.50;;;28.50;99.90;;;;;;5053764;28;20028;-60
2022/11/15 01:58:41;;;;;;;20.07;10.60;;;28.70;99.90;;;;;;5054481;28;20027;-63
2022/11/15 02:01:08;;;;;;;7.60;5.57;;;28.80;99.90;;;;;;5054370;28;20424;-62
2022/11/15 02:04:00;;;;;;;9.40;5.60;;;28.90;99.90;;;;;;5054215;28;20100;-62
2022/11/15 02:06:26;;;;;;;;;;;28.90;99.90;;;;;;5040458;28;20036;-61
2022/11/15 02:08:54;;;;;;;17.10;6.45;;;28.90;99.90;;;;;;5054006;28;19944;-63
2022/11/15 02:11:21;;;;;;;22.75;7.88;;;29.00;99.90;;;;;;5053097;28;20029;-66
2022/11/15 02:13:47;;;;;;;44.63;33.85;;;29.20;99.90;;;;;;5049228;28;20033;-62
2022/11/15 02:16:29;;;;;;;88.03;63.70;;;29.30;99.90;;;;;;5043005;28;20048;-63
2022/11/15 02:19:01;;;;;;;39.60;30.30;;;29.40;99.90;;;;;;5034156;28;20497;-62
2022/11/15 02:21:29;;;;;;;13.02;6.18;;;29.50;99.90;;;;;;5034146;28;20022;-62
2022/11/15 02:24:03;;;;;;;80.80;63.97;;;29.40;99.90;;;;;;5033911;28;20017;-60
2022/11/15 02:27:04;;;;;;;66.28;59.25;;;29.40;99.90;;;;;;5033276;28;20038;-59
2022/11/15 02:29:35;;;;;;;13.82;6.40;;;29.40;99.90;;;;;;5026359;28;20037;-61
2022/11/15 02:32:05;;;;;;;14.80;7.40;;;29.30;99.90;;;;;;5033901;28;20060;-62
2022/11/15 02:34:42;;;;;;;14.40;7.25;;;29.40;99.90;;;;;;5033580;28;20036;-67
2022/11/15 02:37:08;;;;;;;13.20;6.85;;;29.40;99.90;;;;;;5033504;28;20375;-64
2022/11/15 02:39:37;;;;;;;10.10;7.20;;;29.50;99.90;;;;;;5033759;28;20551;-63
2022/11/15 02:44:47;;;;;;;13.45;7.78;;;29.60;99.90;;;;;;5033747;28;20390;-60
2022/11/15 02:47:17;;;;;;;20.83;8.45;;;29.70;99.90;;;;;;5033679;28;20083;-61
2022/11/15 02:49:47;;;;;;;14.50;7.57;;;29.80;99.90;;;;;;5033556;28;20482;-62
2022/11/15 02:52:16;;;;;;;16.33;7.82;;;29.90;99.90;;;;;;5033569;28;20434;-62
2022/11/15 02:54:52;;;;;;;13.45;8.05;;;30.00;99.90;;;;;;5033354;28;20544;-62
2022/11/15 02:57:31;;;;;;;18.60;11.27;;;30.00;99.90;;;;;;5033416;28;20026;-62
2022/11/15 03:00:03;;;;;;;20.80;10.60;;;30.00;99.90;;;;;;5033593;28;20021;-62
2022/11/15 03:02:34;;;;;;;16.65;9.98;;;30.00;99.90;;;;;;5033504;28;20105;-62
2022/11/15 03:05:09;;;;;;;16.63;9.32;;;30.00;99.90;;;;;;5033378;28;20026;-62
2022/11/15 03:07:44;;;;;;;20.33;9.40;;;30.00;99.90;;;;;;5033318;28;20026;-61
2022/11/15 03:10:22;;;;;;;17.17;9.02;;;30.10;99.90;;;;;;5033404;28;20021;-63
2022/11/15 03:12:56;;;;;;;14.57;9.75;;;30.30;99.90;;;;;;5043450;28;20124;-62
2022/11/15 03:15:30;;;;;;;18.08;9.43;;;30.50;99.90;;;;;;5033061;28;20076;-62
2022/11/15 03:18:06;;;;;;;20.25;9.32;;;30.50;99.90;;;;;;5048900;28;20024;-62
2022/11/15 03:20:35;;;;;;;13.38;9.07;;;30.40;99.90;;;;;;5072992;28;20020;-61
2022/11/15 03:23:06;;;;;;;13.82;9.20;;;30.30;99.90;;;;;;5072901;28;20466;-63
2022/11/15 03:25:35;;;;;;;14.60;8.80;;;30.40;99.90;;;;;;5072867;28;20016;-62
2022/11/15 03:28:06;;;;;;;12.93;9.27;;;30.60;99.90;;;;;;5067819;28;20029;-62
2022/11/15 03:30:36;;;;;;;20.45;8.52;;;30.70;99.90;;;;;;5039536;28;20033;-60
2022/11/15 03:33:04;;;;;;;46.65;35.72;;;30.80;99.90;;;;;;5041748;28;20044;-62
2022/11/15 03:35:37;;;;;;;27.30;17.92;;;30.90;99.90;;;;;;5041748;28;20453;-62
2022/11/15 03:38:06;;;;;;;30.50;19.63;;;30.90;99.90;;;;;;5042793;28;20013;-62
2022/11/15 03:40:40;;;;;;;25.15;19.42;;;30.80;99.90;;;;;;5042329;28;20017;-62
2022/11/15 03:43:10;;;;;;;66.78;48.58;;;30.70;99.90;;;;;;5044224;28;20032;-63
2022/11/15 03:45:46;;;;;;;27.35;20.50;;;30.70;99.90;;;;;;5041519;28;20029;-62
2022/11/15 03:48:19;;;;;;;16.23;10.52;;;30.80;99.90;;;;;;5042576;28;20159;-61
2022/11/15 03:50:46;;;;;;;14.27;9.52;;;30.80;99.90;;;;;;5042181;28;20021;-62
2022/11/15 03:53:13;;;;;;;15.52;10.18;;;31.00;99.90;;;;;;5043638;28;20039;-60
2022/11/15 03:55:40;;;;;;;12.95;6.32;;;31.00;99.90;;;;;;5048365;28;20025;-63
2022/11/15 03:58:06;;;;;;;16.00;9.52;;;31.00;99.90;;;;;;5038693;28;20040;-63
2022/11/15 04:00:33;;;;;;;33.72;16.02;;;31.00;99.90;;;;;;5040131;28;20053;-62
2022/11/15 04:02:59;;;;;;;26.85;15.40;;;31.10;99.90;;;;;;5041054;28;20041;-61
2022/11/15 04:05:26;;;;;;;20.40;12.35;;;31.10;99.90;;;;;;5032708;28;20045;-62
2022/11/15 04:07:53;;;;;;;17.30;10.32;;;31.00;99.90;;;;;;5032814;28;20056;-63
2022/11/15 04:10:19;;;;;;;18.95;11.02;;;31.00;99.90;;;;;;5032611;28;20064;-63
2022/11/15 04:12:47;;;;;;;13.57;8.93;;;31.00;99.90;;;;;;5032425;28;20056;-63
2022/11/15 04:15:16;;;;;;;13.45;7.82;;;31.10;99.90;;;;;;5032656;28;20104;-64
2022/11/15 04:17:44;;;;;;;14.50;8.10;;;31.20;99.90;;;;;;5032593;28;20022;-63
2022/11/15 04:25:14;;;;;;;14.30;9.30;;;31.40;99.90;;;;;;5032590;28;20106;-65
2022/11/15 04:27:40;;;;;;;17.00;10.80;;;31.40;99.90;;;;;;5032791;28;20032;-65
2022/11/15 04:30:07;;;;;;;13.35;10.52;;;31.50;99.90;;;;;;5035636;28;20453;-65
2022/11/15 04:32:34;;;;;;;15.65;8.68;;;31.60;99.90;;;;;;5036045;28;20097;-66
2022/11/15 04:35:00;;;;;;;18.80;12.13;;;31.80;99.90;;;;;;5036027;28;20037;-65
2022/11/15 04:37:27;;;;;;;12.20;8.90;;;31.90;99.90;;;;;;5036206;28;20025;-64
2022/11/15 04:39:53;;;;;;;19.45;7.97;;;31.90;99.90;;;;;;5035992;28;20022;-65
2022/11/15 04:42:20;;;;;;;19.98;11.10;;;31.90;99.90;;;;;;5035804;28;20108;-64
2022/11/15 04:44:46;;;;;;;18.95;10.98;;;32.00;99.90;;;;;;5036026;28;20378;-65
2022/11/15 04:47:13;;;;;;;17.83;12.07;;;31.90;99.90;;;;;;5040919;28;20037;-65
2022/11/15 04:49:39;;;;;;;18.45;11.18;;;31.90;99.90;;;;;;5055525;28;20039;-65
2022/11/15 04:52:06;;;;;;;18.45;10.43;;;31.80;99.90;;;;;;5055837;28;20017;-65
2022/11/15 04:54:33;;;;;;;15.65;10.70;;;31.80;99.90;;;;;;5039563;28;20021;-65
2022/11/15 04:56:59;;;;;;;20.23;8.90;;;31.80;99.90;;;;;;5035597;28;20438;-64
2022/11/15 04:59:26;;;;;;;18.58;8.20;;;31.80;99.90;;;;;;5035771;28;20021;-63
2022/11/15 05:01:53;;;;;;;15.38;10.43;;;31.90;99.90;;;;;;5035480;28;20036;-64
2022/11/15 05:04:19;;;;;;;16.52;6.63;;;31.90;99.90;;;;;;5035585;28;20064;-64
2022/11/15 05:06:49;;;;;;;13.32;6.88;;;31.90;99.90;;;;;;5035610;28;20021;-64
2022/11/15 05:09:16;;;;;;;10.05;6.55;;;31.90;99.90;;;;;;5035322;28;20040;-64
2022/11/15 05:11:43;;;;;;;13.75;5.32;;;32.00;99.90;;;;;;5035171;28;20470;-64
2022/11/15 05:14:09;;;;;;;9.68;5.60;;;32.10;99.90;;;;;;5035207;28;20032;-64
2022/11/15 05:16:37;;;;;;;14.27;5.15;;;32.00;99.90;;;;;;5035507;28;20025;-64
2022/11/15 05:19:03;;;;;;;9.27;6.00;;;32.00;99.90;;;;;;5035063;28;20437;-62
2022/11/15 05:21:30;;;;;;;13.50;6.20;;;32.00;99.90;;;;;;5038458;28;20029;-64
2022/11/15 05:23:57;;;;;;;15.98;6.43;;;32.10;99.90;;;;;;5043544;28;20040;-62
2022/11/15 05:26:23;;;;;;;41.53;15.98;;;32.10;99.90;;;;;;5045043;28;20021;-63
2022/11/15 05:28:54;;;;;;;10.38;6.38;;;32.20;99.90;;;;;;5044789;28;20065;-66
2022/11/15 05:31:21;;;;;;;12.30;5.93;;;32.30;99.90;;;;;;5042854;28;20028;-69
2022/11/15 05:33:50;;;;;;;7.57;4.80;;;32.30;99.90;;;;;;5042836;28;20052;-63
2022/11/15 05:36:38;;;;;;;8.57;5.93;;;32.30;99.90;;;;;;5043145;28;20171;-64
2022/11/15 05:39:06;;;;;;;7.45;5.28;;;32.30;99.90;;;;;;5054211;28;20025;-63
2022/11/15 05:41:35;;;;;;;7.57;5.10;;;32.50;99.90;;;;;;5054840;28;20013;-68
2022/11/15 05:44:05;;;;;;;7.45;4.70;;;32.40;99.90;;;;;;5054709;28;20056;-63
2022/11/15 05:46:32;;;;;;;9.15;3.70;;;32.50;99.90;;;;;;5054504;28;20448;-63
2022/11/15 05:49:00;;;;;;;11.80;3.88;;;32.50;99.90;;;;;;5054621;28;20021;-64
2022/11/15 05:51:29;;;;;;;5.32;3.72;;;32.50;99.90;;;;;;5054583;28;20067;-63
2022/11/15 05:53:58;;;;;;;5.30;3.95;;;32.60;99.90;;;;;;5054210;28;20469;-63
2022/11/15 05:56:25;;;;;;;9.50;3.90;;;32.60;99.90;;;;;;5054510;28;20082;-63
2022/11/15 05:58:55;;;;;;;7.82;3.53;;;32.60;99.90;;;;;;5054330;28;20071;-64
2022/11/15 06:01:21;;;;;;;5.45;3.58;;;32.70;99.90;;;;;;5052189;28;20083;-64
2022/11/15 06:03:48;;;;;;;6.82;4.03;;;32.70;99.90;;;;;;5053072;28;20064;-63
2022/11/15 06:06:14;;;;;;;9.27;3.97;;;32.70;99.90;;;;;;5053957;28;20149;-63
2022/11/15 06:08:41;;;;;;;7.07;4.05;;;32.70;99.90;;;;;;5054261;28;20516;-63
2022/11/15 06:11:08;;;;;;;7.85;3.78;;;32.70;99.90;;;;;;5054105;28;20111;-63
2022/11/15 06:13:34;;;;;;;7.68;3.97;;;32.60;99.90;;;;;;5047727;28;20036;-64
2022/11/15 06:16:01;;;;;;;6.55;3.88;;;32.50;99.90;;;;;;5050660;28;20159;-63
2022/11/15 06:18:28;;;;;;;7.50;4.20;;;32.60;99.90;;;;;;5042056;28;20014;-64
2022/11/15 06:20:58;;;;;;;10.50;5.60;;;32.70;99.90;;;;;;5042870;28;20021;-68
2022/11/15 06:23:24;;;;;;;14.02;7.13;;;32.60;99.90;;;;;;5043646;28;20031;-63
2022/11/15 06:25:51;;;;;;;15.60;7.55;;;32.70;99.90;;;;;;5042385;28;20036;-62
2022/11/15 06:28:17;;;;;;;9.63;6.03;;;32.80;99.90;;;;;;5042941;28;20028;-63
2022/11/15 06:30:44;;;;;;;14.35;6.72;;;32.70;99.90;;;;;;5043717;28;20053;-63
2022/11/15 06:33:10;;;;;;;12.73;6.72;;;32.70;99.90;;;;;;5042193;28;20028;-63
2022/11/15 06:35:39;;;;;;;11.40;6.10;;;32.80;99.90;;;;;;5042675;28;20135;-63
2022/11/15 06:38:08;;;;;;;15.68;8.65;;;32.70;99.90;;;;;;5043011;28;20123;-63
2022/11/15 06:40:37;;;;;;;36.97;25.67;;;32.70;99.90;;;;;;5041949;28;20026;-64
2022/11/15 06:43:05;;;;;;;20.15;12.77;;;32.80;99.90;;;;;;5038746;28;20052;-63
2022/11/15 06:45:33;;;;;;;12.07;7.63;;;32.70;99.90;;;;;;5041879;28;20113;-62
2022/11/15 06:47:59;;;;;;;11.52;7.80;;;32.70;99.90;;;;;;5044121;28;20373;-63
2022/11/15 06:50:26;;;;;;;9.98;5.75;;;32.70;99.90;;;;;;5049743;28;20410;-63
2022/11/15 06:52:52;;;;;;;10.80;6.90;;;32.70;99.90;;;;;;5040268;28;20678;-63
2022/11/15 06:55:19;;;;;;;6.45;5.03;;;32.60;99.90;;;;;;5042766;28;20028;-62
2022/11/15 06:57:48;;;;;;;6.57;5.25;;;32.60;99.90;;;;;;5041965;28;20071;-63
2022/11/15 07:00:16;;;;;;;10.43;5.50;;;32.60;99.90;;;;;;5040621;28;20374;-65
2022/11/15 07:02:43;;;;;;;10.55;5.22;;;32.60;99.90;;;;;;5049917;28;20021;-64
2022/11/15 07:05:10;;;;;;;20.27;12.77;;;32.60;99.90;;;;;;5052890;28;20029;-63
2022/11/15 07:07:36;;;;;;;14.27;8.40;;;32.60;99.90;;;;;;5034881;28;20022;-62
2022/11/15 07:10:03;;;;;;;11.50;6.63;;;32.70;99.90;;;;;;5042669;28;20024;-62
2022/11/15 07:12:29;;;;;;;11.48;6.13;;;32.70;99.90;;;;;;5043343;28;20493;-60
2022/11/15 07:14:56;;;;;;;8.60;6.60;;;32.70;99.90;;;;;;5040739;28;20029;-61
2022/11/15 07:17:23;;;;;;;15.80;6.75;;;32.70;99.90;;;;;;5042357;28;20373;-61
2022/11/15 07:19:49;;;;;;;42.60;36.25;;;32.80;99.90;;;;;;5041608;28;20017;-63
2022/11/15 07:22:16;;;;;;;13.77;10.13;;;32.80;99.90;;;;;;5040807;28;20181;-62
2022/11/15 07:24:42;;;;;;;27.35;15.68;;;32.90;99.90;;;;;;5039958;28;20029;-64
2022/11/15 07:27:09;;;;;;;14.30;7.85;;;32.90;99.90;;;;;;5046736;28;20211;-63
2022/11/15 07:29:35;;;;;;;12.60;7.68;;;32.80;99.90;;;;;;5036358;28;20036;-63
2022/11/15 07:32:02;;;;;;;17.75;10.75;;;32.80;99.90;;;;;;5033275;28;20407;-64
2022/11/15 07:34:28;;;;;;;19.00;9.48;;;32.80;99.90;;;;;;5032928;28;20107;-64
2022/11/15 07:36:55;;;;;;;15.88;7.78;;;32.80;99.90;;;;;;5032557;28;20037;-64
2022/11/15 07:39:21;;;;;;;11.50;6.82;;;32.80;99.90;;;;;;5032607;28;20049;-64
2022/11/15 07:41:49;;;;;;;10.10;5.50;;;32.90;99.90;;;;;;5032839;28;20048;-64
2022/11/15 07:44:15;;;;;;;14.65;7.25;;;32.90;99.90;;;;;;5032977;28;20166;-64
2022/11/15 07:46:42;;;;;;;18.05;8.65;;;32.90;99.90;;;;;;5032977;28;20036;-64
2022/11/15 07:49:08;;;;;;;12.02;6.45;;;32.80;99.60;;;;;;5032829;28;20030;-63
2022/11/15 07:51:35;;;;;;;7.65;5.18;;;32.70;99.90;;;;;;5032753;28;20021;-64
2022/11/15 07:54:01;;;;;;;9.45;5.53;;;32.70;98.70;;;;;;5036001;28;20047;-62
2022/11/15 07:56:28;;;;;;;11.52;7.25;;;32.70;99.90;;;;;;5042958;28;20079;-64
2022/11/15 07:58:54;;;;;;;14.15;8.45;;;32.90;99.90;;;;;;5040775;28;20092;-62
2022/11/15 08:01:21;;;;;;;10.45;7.40;;;32.80;99.90;;;;;;5041772;28;20021;-65
2022/11/15 08:03:47;;;;;;;12.63;5.88;;;32.80;99.90;;;;;;5049324;28;20013;-65
2022/11/15 08:06:14;;;;;;;18.23;8.65;;;32.70;98.90;;;;;;5044148;28;20047;-66
2022/11/15 08:08:40;;;;;;;27.02;11.07;;;32.70;99.90;;;;;;5041074;28;20481;-64
2022/11/15 08:11:07;;;;;;;19.35;9.38;;;32.70;99.90;;;;;;5043829;28;20017;-65
2022/11/15 08:13:33;;;;;;;14.55;8.45;;;32.70;99.90;;;;;;5037531;28;20037;-66
2022/11/15 08:16:01;;;;;;;26.23;11.20;;;32.80;99.90;;;;;;5041124;28;20035;-65
2022/11/15 08:18:28;;;;;;;17.63;8.70;;;32.80;99.90;;;;;;5041135;28;20377;-65
2022/11/15 08:21:00;;;;;;;19.15;9.25;;;32.80;99.90;;;;;;5038983;28;20033;-65
2022/11/15 08:23:27;;;;;;;15.43;8.30;;;32.80;99.90;;;;;;5036106;28;20498;-66
2022/11/15 08:26:05;;;;;;;20.60;7.47;;;32.80;99.90;;;;;;5037877;28;20033;-67
2022/11/15 08:28:32;;;;;;;12.63;6.90;;;32.80;99.90;;;;;;5035626;28;20036;-65
2022/11/15 08:30:59;;;;;;;16.83;7.63;;;32.70;99.90;;;;;;5037814;28;20029;-65
2022/11/15 08:33:25;;;;;;;10.55;6.97;;;32.50;99.90;;;;;;5035692;28;20114;-63
2022/11/15 08:35:52;;;;;;;15.75;6.50;;;32.50;99.90;;;;;;5041078;28;20307;-63
2022/11/15 08:38:18;;;;;;;17.58;7.28;;;32.50;99.90;;;;;;5042898;28;20478;-63
2022/11/15 08:40:45;;;;;;;19.05;9.50;;;32.40;99.90;;;;;;5041450;28;20021;-63
2022/11/15 08:43:11;;;;;;;23.02;9.88;;;32.50;99.90;;;;;;5046804;28;20056;-64
2022/11/15 08:45:38;;;;;;;18.13;8.95;;;32.50;99.90;;;;;;5042701;28;20025;-64
2022/11/15 08:48:05;;;;;;;71.57;37.10;;;32.50;99.90;;;;;;5043162;28;20468;-62
2022/11/15 08:50:32;;;;;;;58.28;29.02;;;32.50;99.90;;;;;;5045188;28;20422;-62
2022/11/15 08:53:04;;;;;;;27.27;14.98;;;32.50;99.90;;;;;;5041651;28;20028;-63
2022/11/15 08:55:30;;;;;;;18.17;10.32;;;32.40;99.90;;;;;;5043442;28;20092;-64
2022/11/15 08:57:58;;;;;;;20.35;12.13;;;32.40;99.90;;;;;;5041865;28;20034;-64
2022/11/15 09:00:24;;;;;;;32.38;18.80;;;32.30;99.90;;;;;;5046139;28;20067;-63
2022/11/15 09:02:51;;;;;;;33.45;21.23;;;32.10;99.90;;;;;;5047217;28;20378;-65
2022/11/15 09:05:18;;;;;;;32.78;17.35;;;32.00;99.90;;;;;;5047677;28;20052;-64
2022/11/15 09:07:45;;;;;;;29.65;15.30;;;32.00;99.90;;;;;;5043665;28;20101;-64
2022/11/15 09:10:11;;;;;;;29.42;14.90;;;31.90;99.90;;;;;;5043457;28;20017;-63
2022/11/15 09:12:38;;;;;;;23.23;11.30;;;31.80;99.90;;;;;;5044713;28;20021;-63
2022/11/15 09:15:06;;;;;;;17.88;11.45;;;31.70;99.90;;;;;;5043618;28;20025;-63
2022/11/15 09:17:32;;;;;;;15.45;9.48;;;31.60;99.90;;;;;;5050944;28;20045;-64
2022/11/15 09:19:59;;;;;;;16.88;10.10;;;31.50;99.90;;;;;;5047367;28;20025;-63
2022/11/15 09:22:25;;;;;;;50.40;27.15;;;31.50;99.90;;;;;;5048215;28;20021;-63
2022/11/15 09:24:52;;;;;;;127.60;69.30;;;31.60;99.90;;;;;;5042965;28;20029;-63
2022/11/15 09:27:18;;;;;;;171.05;106.63;;;31.60;99.90;;;;;;5044968;28;20017;-63
2022/11/15 09:29:45;;;;;;;119.13;63.33;;;31.70;99.90;;;;;;5043860;28;20656;-64
2022/11/15 09:32:11;;;;;;;70.65;38.85;;;31.70;99.90;;;;;;5042324;28;20075;-64
2022/11/15 09:34:38;;;;;;;207.27;137.00;;;31.60;99.90;;;;;;5034539;28;20018;-64
2022/11/15 09:37:04;;;;;;;37.63;21.65;;;31.60;99.90;;;;;;5033209;28;20043;-64
2022/11/15 09:39:31;;;;;;;38.83;19.30;;;31.60;99.90;;;;;;5033657;28;20021;-64
2022/11/15 09:42:05;;;;;;;44.78;20.08;;;31.60;99.90;;;;;;5033381;28;20390;-64
2022/11/15 09:45:00;;;;;;;45.75;18.67;;;31.60;99.90;;;;;;5033388;28;20025;-64
2022/11/15 09:47:26;;;;;;;38.95;22.08;;;31.50;99.90;;;;;;5026063;28;20065;-64
2022/11/15 09:49:59;;;;;;;46.47;21.90;;;31.60;99.90;;;;;;5033534;28;20029;-63
2022/11/15 09:52:26;;;;;;;43.15;23.58;;;31.50;99.90;;;;;;5038982;28;20104;-63
2022/11/15 09:54:53;;;;;;;154.63;95.57;;;31.50;99.90;;;;;;5042362;28;20021;-64
2022/11/15 09:57:31;;;;;;;232.80;128.65;;;31.40;99.90;;;;;;5046205;28;20075;-66
2022/11/15 10:00:06;;;;;;;149.70;72.03;;;31.40;99.90;;;;;;5043591;28;20378;-63
2022/11/15 10:02:37;;;;;;;215.70;76.90;;;31.40;99.90;;;;;;5041819;28;20465;-65
2022/11/15 10:05:07;;;;;;;276.80;96.10;;;31.30;99.90;;;;;;5048587;28;20074;-64
2022/11/15 10:07:48;;;;;;;134.23;52.25;;;31.20;99.90;;;;;;5042657;28;20030;-65
2022/11/15 10:10:23;;;;;;;98.15;49.38;;;31.20;99.90;;;;;;5043762;28;20379;-66
2022/11/15 10:12:51;;;;;;;121.32;65.00;;;31.00;99.90;;;;;;5043553;28;20072;-65
2022/11/15 10:15:24;;;;;;;90.78;54.78;;;31.00;99.90;;;;;;5042086;28;20057;-63
2022/11/15 10:17:55;;;;;;;102.32;57.75;;;30.90;99.90;;;;;;5041831;28;20036;-61
2022/11/15 10:20:23;;;;;;;45.20;28.15;;;30.80;99.90;;;;;;5043140;28;20032;-65
2022/11/15 10:23:06;;;;;;;42.63;28.30;;;30.80;99.90;;;;;;5043589;28;20029;-65
2022/11/15 10:25:34;;;;;;;46.28;27.30;;;30.80;99.90;;;;;;5043607;28;20021;-63
2022/11/15 10:28:10;;;;;;;35.17;22.05;;;30.80;99.90;;;;;;5044341;28;20336;-63
2022/11/15 10:30:38;;;;;;;45.65;25.20;;;30.70;99.90;;;;;;5044990;28;20021;-65
2022/11/15 10:33:12;;;;;;;44.95;29.23;;;30.70;99.90;;;;;;5042374;28;20115;-67
2022/11/15 10:35:38;;;;;;;53.13;30.00;;;30.60;99.90;;;;;;5046422;28;20091;-64
2022/11/15 10:38:07;;;;;;;51.00;27.55;;;30.60;99.90;;;;;;5042621;28;20086;-64
2022/11/15 10:40:35;;;;;;;40.50;28.58;;;30.50;99.90;;;;;;5043291;28;20086;-65
2022/11/15 10:43:14;;;;;;;66.93;42.47;;;30.60;99.90;;;;;;5041841;28;20037;-67
2022/11/15 10:45:41;;;;;;;80.55;54.80;;;30.60;99.90;;;;;;5041866;28;20017;-65
2022/11/15 10:48:11;;;;;;;59.25;43.88;;;30.60;99.90;;;;;;5042061;28;20402;-65
2022/11/15 10:50:39;;;;;;;74.80;48.70;;;30.40;99.90;;;;;;5043219;28;20025;-64
2022/11/15 10:53:17;;;;;;;96.00;59.83;;;30.40;99.90;;;;;;5041674;28;20497;-65
2022/11/15 10:55:50;;;;;;;64.03;42.95;;;30.40;99.90;;;;;;5042003;28;20487;-64
2022/11/15 10:58:20;;;;;;;65.85;39.72;;;30.50;99.90;;;;;;5042342;28;20048;-64
2022/11/15 11:00:47;;;;;;;45.05;28.00;;;30.50;99.90;;;;;;5047049;28;20035;-62
2022/11/15 11:03:18;;;;;;;48.90;27.85;;;30.50;99.90;;;;;;5041099;28;20025;-67
2022/11/15 11:05:45;;;;;;;40.47;25.13;;;30.40;99.90;;;;;;5033459;28;20532;-63
2022/11/15 11:08:11;;;;;;;31.25;21.38;;;30.30;99.90;;;;;;5033238;28;20413;-66
2022/11/15 11:10:38;;;;;;;31.65;19.70;;;30.30;99.90;;;;;;5033173;28;20021;-69
2022/11/15 11:13:10;;;;;;;38.83;22.98;;;30.10;99.90;;;;;;5033116;28;20144;-69
2022/11/15 11:15:36;;;;;;;39.10;22.48;;;30.00;99.90;;;;;;5047751;28;20029;-68
2022/11/15 11:18:15;;;;;;;44.38;23.92;;;30.00;99.90;;;;;;5053183;28;20025;-70
2022/11/15 11:20:48;;;;;;;33.60;18.75;;;30.00;99.90;;;;;;5053023;28;20025;-70
2022/11/15 11:23:17;;;;;;;33.55;19.33;;;30.00;99.90;;;;;;5052861;28;20028;-69
2022/11/15 11:25:51;;;;;;;32.15;16.83;;;30.00;99.90;;;;;;5053022;28;20021;-68
2022/11/15 11:28:38;;;;;;;25.63;16.10;;;29.90;99.90;;;;;;5052947;28;20078;-68
2022/11/15 11:31:09;;;;;;;70.00;48.85;;;29.80;99.90;;;;;;5043446;28;20507;-67
2022/11/15 11:33:39;;;;;;;45.22;28.10;;;29.80;99.90;;;;;;5052852;28;20078;-65
2022/11/15 11:36:06;;;;;;;27.85;19.90;;;29.80;99.90;;;;;;5046407;28;20045;-68
2022/11/15 11:38:40;;;;;;;93.63;67.43;;;29.90;99.90;;;;;;5039455;28;20025;-67
2022/11/15 11:41:15;;;;;;;93.60;54.63;;;29.90;99.90;;;;;;5036817;28;20033;-69
2022/11/15 11:43:47;;;;;;;28.55;19.10;;;29.90;99.90;;;;;;5037027;28;20390;-67
2022/11/15 11:46:25;;;;;;;66.70;24.98;;;29.90;99.90;;;;;;5036892;28;20021;-65
2022/11/15 11:49:01;;;;;;;38.38;21.92;;;29.90;99.90;;;;;;5036865;28;20088;-68
2022/11/15 11:51:39;;;;;;;34.88;19.98;;;29.80;99.90;;;;;;5036836;28;20096;-66
2022/11/15 11:54:11;;;;;;;33.72;19.58;;;29.70;99.90;;;;;;5036775;28;20025;-68
2022/11/15 11:56:40;;;;;;;173.60;106.28;;;29.70;99.90;;;;;;5036967;28;20024;-65
2022/11/15 11:59:21;;;;;;;35.83;21.38;;;29.70;99.90;;;;;;5036584;28;20025;-70
2022/11/15 12:01:47;;;;;;;37.90;27.23;;;29.70;99.90;;;;;;5036681;28;20018;-69
2022/11/15 12:04:20;;;;;;;42.97;29.55;;;29.70;99.90;;;;;;5036332;28;20367;-64
2022/11/15 12:07:13;;;;;;;45.00;28.63;;;29.70;99.90;;;;;;5036325;28;20367;-67
2022/11/15 12:10:04;;;;;;;137.02;99.47;;;29.70;99.90;;;;;;5031933;28;20351;-66
2022/11/15 12:12:35;;;;;;;24.13;17.52;;;29.70;99.90;;;;;;5034304;28;20083;-66
2022/11/15 12:15:12;;;;;;;30.58;16.65;;;29.70;99.90;;;;;;5047482;28;20059;-65
2022/11/15 12:17:41;;;;;;;26.90;16.75;;;29.60;99.90;;;;;;5044580;28;20128;-66
2022/11/15 12:20:20;;;;;;;25.63;16.23;;;29.60;99.90;;;;;;5045053;28;20017;-67
2022/11/15 12:22:53;;;;;;;26.63;17.23;;;29.60;99.90;;;;;;5045326;28;20064;-66
2022/11/15 12:25:29;;;;;;;31.60;17.02;;;29.70;99.90;;;;;;5045640;28;20029;-67
2022/11/15 12:27:59;;;;;;;27.83;17.45;;;29.70;99.90;;;;;;5045828;28;20060;-65
2022/11/15 12:30:29;;;;;;;42.65;32.42;;;29.70;99.90;;;;;;5056009;28;20025;-66
2022/11/15 12:32:59;;;;;;;65.07;37.92;;;29.60;99.90;;;;;;5056036;28;20021;-66
2022/11/15 12:35:34;;;;;;;54.10;35.40;;;29.60;99.90;;;;;;5047936;28;20069;-66
2022/11/15 12:38:01;;;;;;;78.32;59.20;;;29.60;99.90;;;;;;5041927;28;20490;-64
2022/11/15 12:40:31;;;;;;;44.50;28.58;;;29.50;99.90;;;;;;5042317;28;20586;-66
2022/11/15 12:43:04;;;;;;;29.92;20.52;;;29.50;99.90;;;;;;5035909;28;20494;-66
2022/11/15 12:45:32;;;;;;;;;;;29.30;99.90;;;;;;5036563;28;20099;-65
2022/11/15 12:48:04;;;;;;;31.83;17.92;;;29.20;99.90;;;;;;5035754;28;19912;-64
2022/11/15 12:50:36;;;;;;;26.88;17.65;;;29.20;99.90;;;;;;5034560;28;20421;-64